Terminal Aerodrome Forecast
Issued by NWS Blacksburg, VA

Home | Current Version | Previous Version | Text Only | Print | Product List | Glossary On
Versions: 1 2 3 4 5 6 7 8 9 10 11 12 13 14 15 16 17 18 19 20 21 22 23 24 25 26
000
FTUS41 KRNK 181722
TAFROA
TAF
KROA 181722Z 1818/1918 27008KT P6SM VCSH BKN045
      TEMPO 1819/1822 2SM TSRA OVC025CB
     FM182200 26007KT P6SM VCSH BKN040
     FM190000 29004KT P6SM SCT090
     FM191300 30007KT P6SM FEW250=

USA.gov is the U.S. government's official web portal to all federal, state and local government web resources and services.